createdAt,value
2023-10-19T00:02:21.016Z,32.10
2023-10-19T00:04:50.800Z,31.13
2023-10-19T00:07:19.764Z,27.33
2023-10-19T00:09:49.373Z,26.80
2023-10-19T00:12:23.296Z,29.60
2023-10-19T00:14:50.823Z,31.60
2023-10-19T00:17:22.177Z,26.57
2023-10-19T00:19:59.193Z,27.17
2023-10-19T00:22:32.168Z,31.37
2023-10-19T00:25:00.343Z,28.03
2023-10-19T00:27:30.169Z,29.30
2023-10-19T00:30:07.275Z,29.87
2023-10-19T00:32:39.894Z,28.47
2023-10-19T00:35:27.936Z,30.70
2023-10-19T00:38:19.012Z,30.90
2023-10-19T00:40:54.227Z,34.37
2023-10-19T00:43:34.058Z,29.33
2023-10-19T00:46:08.340Z,29.97
2023-10-19T00:48:37.492Z,30.37
2023-10-19T00:51:10.686Z,30.00
2023-10-19T00:53:41.298Z,33.80
2023-10-19T00:56:12.004Z,32.37
2023-10-19T00:58:42.700Z,32.50
2023-10-19T01:01:11.668Z,33.10
2023-10-19T01:03:40.651Z,32.40
2023-10-19T01:06:13.357Z,31.33
2023-10-19T01:08:45.720Z,31.37
2023-10-19T01:11:16.764Z,29.13
2023-10-19T01:13:47.847Z,28.53
2023-10-19T01:16:22.347Z,33.00
2023-10-19T01:18:55.777Z,32.07
2023-10-19T01:21:37.402Z,31.10
2023-10-19T01:24:13.424Z,32.20
2023-10-19T01:26:42.217Z,28.60
2023-10-19T01:29:14.913Z,35.70
2023-10-19T01:31:57.295Z,30.80
2023-10-19T01:34:28.034Z,34.37
2023-10-19T01:36:57.292Z,32.47
2023-10-19T01:39:26.808Z,31.00
2023-10-19T01:41:55.156Z,30.93
2023-10-19T01:44:22.675Z,31.90
2023-10-19T01:46:51.051Z,31.10
2023-10-19T01:49:27.368Z,27.53
2023-10-19T01:51:56.836Z,31.63
2023-10-19T01:54:26.331Z,30.70
2023-10-19T01:56:57.761Z,30.40
2023-10-19T01:59:28.610Z,31.87
2023-10-19T02:01:59.075Z,32.27
2023-10-19T02:04:27.339Z,32.43
2023-10-19T02:07:01.562Z,36.63
2023-10-19T02:09:33.703Z,30.93
2023-10-19T02:12:05.793Z,32.90
2023-10-19T02:14:35.901Z,31.17
2023-10-19T02:17:05.240Z,30.03
2023-10-19T02:19:34.190Z,30.77
2023-10-19T02:22:05.434Z,32.50
2023-10-19T02:24:35.330Z,30.37
2023-10-19T02:27:02.755Z,31.87
2023-10-19T02:29:32.232Z,30.47
2023-10-19T02:32:05.121Z,32.63
2023-10-19T02:34:35.942Z,33.43
2023-10-19T02:37:03.637Z,32.23
2023-10-19T02:39:32.415Z,32.67
2023-10-19T02:42:04.149Z,33.83
2023-10-19T02:44:32.938Z,31.87
2023-10-19T02:47:01.532Z,30.97
2023-10-19T02:49:32.206Z,33.57
2023-10-19T02:52:05.044Z,31.43
2023-10-19T02:54:36.319Z,37.27
2023-10-19T02:57:09.009Z,34.17
2023-10-19T02:59:37.222Z,37.47
2023-10-19T03:02:17.566Z,35.90
2023-10-19T03:04:46.546Z,36.33
2023-10-19T03:07:16.892Z,36.20
2023-10-19T03:09:50.350Z,36.47
2023-10-19T03:12:21.051Z,35.87
2023-10-19T03:14:49.497Z,38.73
2023-10-19T03:17:18.647Z,36.43
2023-10-19T03:19:47.360Z,37.80
2023-10-19T03:22:16.302Z,36.67
2023-10-19T03:24:44.895Z,35.63
2023-10-19T03:27:16.489Z,36.37
2023-10-19T03:29:49.370Z,35.30
2023-10-19T03:32:20.181Z,36.27
2023-10-19T03:34:50.910Z,33.93
2023-10-19T03:37:21.444Z,35.17
2023-10-19T03:39:52.663Z,37.07
2023-10-19T03:42:22.305Z,41.47
2023-10-19T03:44:55.016Z,34.00
2023-10-19T03:47:29.238Z,37.50
2023-10-19T03:50:01.131Z,40.27
2023-10-19T03:52:31.775Z,35.10
2023-10-19T03:55:01.907Z,31.90
2023-10-19T03:57:31.701Z,33.33
2023-10-19T04:00:01.733Z,33.73
2023-10-19T04:02:39.645Z,37.00
2023-10-19T04:05:11.571Z,31.80
2023-10-19T04:07:40.304Z,30.60
2023-10-19T04:10:30.979Z,31.47
2023-10-19T04:13:01.737Z,32.33
2023-10-19T04:15:35.014Z,30.13
2023-10-19T04:18:09.739Z,29.63
2023-10-19T04:20:55.696Z,34.97
2023-10-19T04:23:28.399Z,33.77
2023-10-19T04:26:05.069Z,34.13
2023-10-19T04:28:39.638Z,33.97
2023-10-19T04:31:14.850Z,33.33
2023-10-19T04:33:47.073Z,34.80
2023-10-19T04:36:22.558Z,33.40
2023-10-19T04:38:51.013Z,33.47
2023-10-19T04:41:19.758Z,33.37
2023-10-19T04:43:51.428Z,37.40
2023-10-19T04:46:21.602Z,35.03
2023-10-19T04:48:50.800Z,35.80
2023-10-19T04:51:19.569Z,34.03
2023-10-19T04:53:47.968Z,34.13
2023-10-19T04:56:16.712Z,35.83
2023-10-19T04:58:45.447Z,36.17
2023-10-19T05:01:14.065Z,39.47
2023-10-19T05:03:44.304Z,38.87
2023-10-19T05:06:13.743Z,40.90
2023-10-19T05:08:42.132Z,35.20
2023-10-19T05:11:10.561Z,39.80
2023-10-19T05:13:40.138Z,38.70
2023-10-19T05:16:09.861Z,39.47
2023-10-19T05:18:38.342Z,37.80
2023-10-19T05:21:08.222Z,38.07
2023-10-19T05:23:36.901Z,36.93
2023-10-19T05:26:07.923Z,40.93
2023-10-19T05:28:36.585Z,35.87
2023-10-19T05:31:05.520Z,35.00
2023-10-19T05:33:34.274Z,39.77
2023-10-19T05:36:03.848Z,36.87
2023-10-19T05:38:34.157Z,38.03
2023-10-19T05:41:02.742Z,44.17
2023-10-19T05:43:31.736Z,35.27
2023-10-19T05:46:00.299Z,38.50
2023-10-19T05:48:28.850Z,34.93
2023-10-19T05:50:57.743Z,34.50
2023-10-19T05:53:26.128Z,38.13
2023-10-19T05:55:55.864Z,38.17
2023-10-19T05:58:24.662Z,38.67
2023-10-19T06:00:53.653Z,38.90
2023-10-19T06:03:22.158Z,38.03
2023-10-19T06:05:50.581Z,38.60
2023-10-19T06:08:19.016Z,43.07
2023-10-19T06:10:57.576Z,41.13
2023-10-19T06:13:26.245Z,35.53
2023-10-19T06:15:54.785Z,41.93
2023-10-19T06:18:23.744Z,39.33
2023-10-19T06:20:56.234Z,43.97
2023-10-19T06:23:24.600Z,42.00
2023-10-19T06:25:53.560Z,39.60
2023-10-19T06:28:23.465Z,42.10
2023-10-19T06:30:52.125Z,42.63
2023-10-19T06:33:20.927Z,41.07
2023-10-19T06:35:49.346Z,39.37
2023-10-19T06:38:19.781Z,39.77
2023-10-19T06:40:48.781Z,42.40
2023-10-19T06:43:17.976Z,42.03
2023-10-19T06:45:48.374Z,44.47
2023-10-19T06:48:16.961Z,41.10
2023-10-19T06:50:49.672Z,43.97
2023-10-19T06:53:19.866Z,40.40
2023-10-19T06:55:49.058Z,36.03
2023-10-19T06:58:20.964Z,38.67
2023-10-19T07:00:57.726Z,37.73
2023-10-19T07:03:27.060Z,36.70
2023-10-19T07:05:55.711Z,34.87
2023-10-19T07:08:24.986Z,38.87
2023-10-19T07:10:54.807Z,39.70
2023-10-19T07:13:23.946Z,36.40
2023-10-19T07:15:53.924Z,40.27
2023-10-19T07:18:23.008Z,39.90
2023-10-19T07:20:51.841Z,37.20
2023-10-19T07:23:23.369Z,35.27
2023-10-19T07:25:56.039Z,34.47
2023-10-19T07:28:27.481Z,34.60
2023-10-19T07:30:58.299Z,37.47
2023-10-19T07:33:27.673Z,35.73
2023-10-19T07:35:56.749Z,30.50
2023-10-19T07:38:26.760Z,35.47
2023-10-19T07:40:55.421Z,32.23
2023-10-19T07:43:24.833Z,37.13
2023-10-19T07:45:54.527Z,35.10
2023-10-19T07:48:26.069Z,35.00
2023-10-19T07:50:55.549Z,33.63
2023-10-19T07:53:25.852Z,37.92
2023-10-19T07:55:55.279Z,32.83
2023-10-19T07:58:23.650Z,35.80
2023-10-19T08:00:53.667Z,38.17
2023-10-19T08:03:23.574Z,33.80
2023-10-19T08:05:52.103Z,30.67
2023-10-19T08:08:20.490Z,31.90
2023-10-19T08:10:49.352Z,32.22
2023-10-19T08:13:18.154Z,32.42
2023-10-19T08:15:47.212Z,28.50
2023-10-19T08:18:16.171Z,30.85
2023-10-19T08:20:46.744Z,28.98
2023-10-19T08:23:17.758Z,30.42
2023-10-19T08:25:56.189Z,29.92
2023-10-19T08:28:25.855Z,28.60
2023-10-19T08:31:01.637Z,29.70
2023-10-19T08:33:34.755Z,30.73
2023-10-19T08:36:05.282Z,29.63
2023-10-19T08:38:34.534Z,31.27
2023-10-19T08:41:04.593Z,28.23
2023-10-19T08:43:35.071Z,25.67
2023-10-19T08:46:05.026Z,27.88
2023-10-19T08:48:37.845Z,26.17
2023-10-19T08:51:12.924Z,28.13
2023-10-19T08:53:41.933Z,30.25
2023-10-19T08:56:13.285Z,27.70
2023-10-19T08:58:42.632Z,29.20
2023-10-19T09:01:11.357Z,33.03
2023-10-19T09:03:41.914Z,26.13
2023-10-19T09:06:15.873Z,34.28
2023-10-19T09:08:48.065Z,28.48
2023-10-19T09:11:20.628Z,31.45
2023-10-19T09:13:53.199Z,28.00
2023-10-19T09:16:23.745Z,28.13
2023-10-19T09:18:53.747Z,28.42
2023-10-19T09:21:26.289Z,30.13
2023-10-19T09:23:57.013Z,33.05
2023-10-19T09:26:26.714Z,31.27
2023-10-19T09:28:56.283Z,25.77
2023-10-19T09:31:26.096Z,28.25
2023-10-19T09:33:55.593Z,27.65
2023-10-19T09:36:31.147Z,31.23
2023-10-19T09:39:00.071Z,29.40
2023-10-19T09:41:30.564Z,35.63
2023-10-19T09:44:07.722Z,33.15
2023-10-19T09:46:41.320Z,33.97
2023-10-19T09:49:13.111Z,37.80
2023-10-19T09:52:02.477Z,37.17
2023-10-19T09:54:50.630Z,38.60
2023-10-19T09:57:30.025Z,37.75
2023-10-19T10:00:13.096Z,43.33
2023-10-19T10:02:47.166Z,41.35
2023-10-19T10:05:50.105Z,42.78
2023-10-19T10:08:38.470Z,41.30
2023-10-19T10:11:23.400Z,45.25
2023-10-19T10:13:53.484Z,41.78
2023-10-19T10:16:26.283Z,47.45
2023-10-19T10:19:01.995Z,48.95
2023-10-19T10:21:31.970Z,54.25
2023-10-19T10:24:05.418Z,52.65
2023-10-19T10:27:01.261Z,54.75
2023-10-19T10:29:30.328Z,51.78
2023-10-19T10:31:59.876Z,49.93
2023-10-19T10:34:46.919Z,50.88
2023-10-19T10:37:16.343Z,52.70
2023-10-19T10:39:46.799Z,56.08
2023-10-19T10:42:16.903Z,55.45
2023-10-19T10:44:47.280Z,56.67
2023-10-19T10:47:23.078Z,54.50
2023-10-19T10:49:54.156Z,55.53
2023-10-19T10:52:29.018Z,53.97
2023-10-19T10:54:59.615Z,52.63
2023-10-19T10:57:34.444Z,53.33
2023-10-19T11:00:09.621Z,52.97
2023-10-19T11:02:41.447Z,49.20
2023-10-19T11:05:13.397Z,46.13
2023-10-19T11:07:43.257Z,44.30
2023-10-19T11:10:13.174Z,44.70
2023-10-19T11:12:41.650Z,44.58
2023-10-19T11:15:11.940Z,43.22
2023-10-19T11:17:46.929Z,44.13
2023-10-19T11:20:24.888Z,42.15
2023-10-19T11:22:57.178Z,45.15
2023-10-19T11:25:30.393Z,41.60
2023-10-19T11:28:00.652Z,38.55
2023-10-19T11:30:32.627Z,38.50
2023-10-19T11:33:02.467Z,39.53
2023-10-19T11:35:33.593Z,32.25
2023-10-19T11:38:05.233Z,36.10
2023-10-19T11:40:35.209Z,34.65
2023-10-19T11:43:04.251Z,33.28
2023-10-19T11:45:33.083Z,34.10
2023-10-19T11:48:01.665Z,29.30
2023-10-19T11:50:30.151Z,29.98
2023-10-19T11:52:58.567Z,26.38
2023-10-19T11:55:27.027Z,30.63
2023-10-19T11:57:57.209Z,32.40
2023-10-19T12:00:34.868Z,33.42
2023-10-19T12:03:03.509Z,31.23
2023-10-19T12:05:31.974Z,31.92
2023-10-19T12:08:00.433Z,34.95
2023-10-19T12:10:34.337Z,35.13
2023-10-19T12:13:05.125Z,35.22
2023-10-19T12:15:34.638Z,31.83
2023-10-19T12:18:04.043Z,34.85
2023-10-19T12:20:36.787Z,37.47
2023-10-19T12:23:06.882Z,34.28
2023-10-19T12:25:46.537Z,35.78
2023-10-19T12:28:26.045Z,37.83
2023-10-19T12:30:54.738Z,37.58
2023-10-19T12:33:23.909Z,38.33
2023-10-19T12:35:55.167Z,38.28
2023-10-19T12:38:23.689Z,39.35
2023-10-19T12:40:53.521Z,41.17
2023-10-19T12:43:24.156Z,35.90
2023-10-19T12:45:54.976Z,37.53
2023-10-19T12:48:26.672Z,38.95
2023-10-19T12:50:55.822Z,43.28
2023-10-19T12:53:26.045Z,47.25
2023-10-19T12:55:54.731Z,42.97
2023-10-19T12:58:24.739Z,44.75
2023-10-19T13:00:53.179Z,44.97
2023-10-19T13:03:23.093Z,42.92
2023-10-19T13:05:51.664Z,41.55
2023-10-19T13:08:20.469Z,40.45
2023-10-19T13:10:53.411Z,34.65
2023-10-19T13:13:25.248Z,36.10
2023-10-19T13:15:55.262Z,32.80
2023-10-19T13:18:29.301Z,34.83
2023-10-19T13:21:00.114Z,36.78
2023-10-19T13:23:29.521Z,37.28
2023-10-19T13:26:12.828Z,38.03
2023-10-19T13:28:42.341Z,31.45
2023-10-19T13:31:14.803Z,34.05
2023-10-19T13:33:47.302Z,33.38
2023-10-19T13:36:17.168Z,36.92
2023-10-19T13:38:46.290Z,32.97
2023-10-19T13:41:17.931Z,33.65
2023-10-19T13:43:46.513Z,33.97
2023-10-19T13:46:16.494Z,31.90
2023-10-19T13:48:45.481Z,32.33
2023-10-19T13:51:20.578Z,30.92
2023-10-19T13:53:51.133Z,30.95
2023-10-19T13:56:19.949Z,35.50
2023-10-19T13:58:49.107Z,29.10
2023-10-19T14:01:20.065Z,31.25
2023-10-19T14:03:48.556Z,29.52
2023-10-19T14:06:17.976Z,32.28
2023-10-19T14:08:46.457Z,30.88
2023-10-19T14:11:14.854Z,34.88
2023-10-19T14:13:43.993Z,31.35
2023-10-19T14:16:13.009Z,33.08
2023-10-19T14:18:44.840Z,28.63
2023-10-19T14:21:15.968Z,35.53
2023-10-19T14:23:45.882Z,34.28
2023-10-19T14:26:15.033Z,32.58
2023-10-19T14:28:43.959Z,31.08
2023-10-19T14:31:13.459Z,35.38
2023-10-19T14:33:44.680Z,31.98
2023-10-19T14:36:13.633Z,37.30
2023-10-19T14:38:44.536Z,39.10
2023-10-19T14:41:13.188Z,36.92
2023-10-19T14:43:41.630Z,34.75
2023-10-19T14:46:10.112Z,37.25
2023-10-19T14:48:38.521Z,37.67
2023-10-19T14:51:08.660Z,38.42
2023-10-19T14:53:37.348Z,36.90
2023-10-19T14:56:07.328Z,40.50
2023-10-19T14:58:35.808Z,39.03
2023-10-19T15:01:04.383Z,36.50
2023-10-19T15:03:32.830Z,35.05
2023-10-19T15:06:01.427Z,40.00
2023-10-19T15:08:32.937Z,38.72
2023-10-19T15:11:01.556Z,40.75
2023-10-19T15:13:30.782Z,38.35
2023-10-19T15:15:59.172Z,40.20
2023-10-19T15:18:28.504Z,37.50
2023-10-19T15:20:56.986Z,42.72
2023-10-19T15:23:27.151Z,36.95
2023-10-19T15:25:56.968Z,42.05
2023-10-19T15:28:25.392Z,41.55
2023-10-19T15:30:54.405Z,39.92
2023-10-19T15:33:23.010Z,43.75
2023-10-19T15:35:52.831Z,43.30
2023-10-19T15:38:22.865Z,41.10
2023-10-19T15:40:51.423Z,41.30
2023-10-19T15:43:23.993Z,41.97
2023-10-19T15:45:52.902Z,42.92
2023-10-19T15:48:22.591Z,40.15
2023-10-19T15:50:51.024Z,38.75
2023-10-19T15:53:19.517Z,42.92
2023-10-19T15:55:48.281Z,44.63
2023-10-19T15:58:19.475Z,45.28
2023-10-19T16:00:49.313Z,45.30
2023-10-19T16:03:18.184Z,44.95
2023-10-19T16:05:46.763Z,46.20
2023-10-19T16:08:15.268Z,48.63
2023-10-19T16:10:44.007Z,43.90
2023-10-19T16:13:14.287Z,43.22
2023-10-19T16:15:42.907Z,53.42
2023-10-19T16:18:13.309Z,47.28
2023-10-19T16:20:41.729Z,46.00
2023-10-19T16:23:10.202Z,53.95
2023-10-19T16:25:38.606Z,52.40
2023-10-19T16:28:07.420Z,51.20
2023-10-19T16:30:36.248Z,54.28
2023-10-19T16:33:05.645Z,50.05
2023-10-19T16:35:35.487Z,53.08
2023-10-19T16:38:05.255Z,49.55
2023-10-19T16:40:33.655Z,52.40
2023-10-19T16:43:03.015Z,49.95
2023-10-19T16:45:31.470Z,54.03
2023-10-19T16:47:59.968Z,55.63
2023-10-19T16:50:29.798Z,56.38
2023-10-19T16:52:59.717Z,50.28
2023-10-19T16:55:28.371Z,51.88
2023-10-19T16:58:00.249Z,51.33
2023-10-19T17:00:35.032Z,54.45
2023-10-19T17:03:03.662Z,51.92
2023-10-19T17:05:32.261Z,52.05
2023-10-19T17:08:02.301Z,52.25
2023-10-19T17:10:31.010Z,54.83
2023-10-19T17:12:59.553Z,55.83
2023-10-19T17:15:28.049Z,54.63
2023-10-19T17:17:56.497Z,57.10
2023-10-19T17:20:26.170Z,56.08
2023-10-19T17:22:55.093Z,60.92
2023-10-19T17:25:25.353Z,59.88
2023-10-19T17:27:54.077Z,56.42
2023-10-19T17:30:22.676Z,55.85
2023-10-19T17:32:54.394Z,54.08
2023-10-19T17:35:25.070Z,56.92
2023-10-19T17:37:53.596Z,59.75
2023-10-19T17:40:22.137Z,56.45
2023-10-19T17:42:52.769Z,52.88
2023-10-19T17:45:21.312Z,55.92
2023-10-19T17:47:51.502Z,60.17
2023-10-19T17:50:21.160Z,52.47
2023-10-19T17:52:50.205Z,54.05
2023-10-19T17:55:21.701Z,53.28
2023-10-19T17:57:54.220Z,55.33
2023-10-19T18:00:22.825Z,53.63
2023-10-19T18:02:52.699Z,54.45
2023-10-19T18:05:22.066Z,52.33
2023-10-19T18:07:53.920Z,55.00
2023-10-19T18:10:29.765Z,52.60
2023-10-19T18:12:59.888Z,57.72
2023-10-19T18:15:28.749Z,48.13
2023-10-19T18:17:57.211Z,47.40
2023-10-19T18:20:25.695Z,50.60
2023-10-19T18:22:54.165Z,51.63
2023-10-19T18:25:24.844Z,55.38
2023-10-19T18:27:53.288Z,51.25
2023-10-19T18:30:23.613Z,52.03
2023-10-19T18:32:53.275Z,52.90
2023-10-19T18:35:21.875Z,53.15
2023-10-19T18:37:50.597Z,53.30
2023-10-19T18:40:21.521Z,55.47
2023-10-19T18:42:49.884Z,51.47
2023-10-19T18:45:19.325Z,50.47
2023-10-19T18:47:49.597Z,58.55
2023-10-19T18:50:33.675Z,52.08
2023-10-19T18:53:04.865Z,50.60
2023-10-19T18:55:33.841Z,53.67
2023-10-19T18:58:03.922Z,59.05
2023-10-19T19:00:34.233Z,51.20
2023-10-19T19:03:04.742Z,50.33
2023-10-19T19:05:34.277Z,50.60
2023-10-19T19:08:02.809Z,54.58
2023-10-19T19:10:34.411Z,49.10
2023-10-19T19:13:03.370Z,50.75
2023-10-19T19:15:32.985Z,49.13
2023-10-19T19:18:02.429Z,52.67
2023-10-19T19:20:32.433Z,51.53
2023-10-19T19:23:00.888Z,50.45
2023-10-19T19:25:29.294Z,49.83
2023-10-19T19:27:59.444Z,43.22
2023-10-19T19:30:28.435Z,43.92
2023-10-19T19:32:56.887Z,46.85
2023-10-19T19:35:25.470Z,45.65
2023-10-19T19:37:56.690Z,46.17
2023-10-19T19:40:26.372Z,48.67
2023-10-19T19:42:55.234Z,43.70
2023-10-19T19:45:24.150Z,44.55
2023-10-19T19:47:54.453Z,48.42
2023-10-19T19:50:23.556Z,49.13
2023-10-19T19:52:53.366Z,47.08
2023-10-19T19:55:23.671Z,43.83
2023-10-19T19:57:52.495Z,49.65
2023-10-19T20:00:23.544Z,50.75
2023-10-19T20:02:52.710Z,43.10
2023-10-19T20:05:22.792Z,47.25
2023-10-19T20:07:52.063Z,48.55
2023-10-19T20:10:20.697Z,50.70
2023-10-19T20:12:50.553Z,55.22
2023-10-19T20:15:19.217Z,51.83
2023-10-19T20:17:48.039Z,53.35
2023-10-19T20:20:18.231Z,55.03
2023-10-19T20:22:47.072Z,52.08
2023-10-19T20:25:16.125Z,48.83
2023-10-19T20:27:45.594Z,54.73
2023-10-19T20:30:17.253Z,54.03
2023-10-19T20:32:47.329Z,52.17
2023-10-19T20:35:18.890Z,56.28
2023-10-19T20:37:47.970Z,50.50
2023-10-19T20:40:22.472Z,45.08
2023-10-19T20:42:54.370Z,54.20
2023-10-19T20:45:27.065Z,50.47
2023-10-19T20:47:57.572Z,49.03
2023-10-19T20:50:28.800Z,52.20
2023-10-19T20:53:00.861Z,51.15
2023-10-19T20:55:29.825Z,48.03
2023-10-19T20:57:58.302Z,50.63
2023-10-19T21:00:28.413Z,46.92
2023-10-19T21:02:56.982Z,45.72
2023-10-19T21:05:26.419Z,44.75
2023-10-19T21:07:56.757Z,48.25
2023-10-19T21:10:25.424Z,47.88
2023-10-19T21:12:53.920Z,43.97
2023-10-19T21:15:22.590Z,42.97
2023-10-19T21:17:54.380Z,41.35
2023-10-19T21:20:23.385Z,44.58
2023-10-19T21:22:54.129Z,42.88
2023-10-19T21:25:25.658Z,44.92
2023-10-19T21:27:55.799Z,43.72
2023-10-19T21:30:24.436Z,47.30
2023-10-19T21:32:54.280Z,43.67
2023-10-19T21:35:22.898Z,43.28
2023-10-19T21:37:52.138Z,41.80
2023-10-19T21:40:20.775Z,42.92
2023-10-19T21:42:49.088Z,43.72
2023-10-19T21:45:17.641Z,43.55
2023-10-19T21:47:46.300Z,43.88
2023-10-19T21:50:16.539Z,47.42
2023-10-19T21:52:45.023Z,46.35
2023-10-19T21:55:13.631Z,45.65
2023-10-19T21:57:42.814Z,48.85
2023-10-19T22:00:16.352Z,45.60
2023-10-19T22:05:25.658Z,46.35
2023-10-19T22:07:54.769Z,47.50
2023-10-19T22:10:24.480Z,48.58
2023-10-19T22:12:53.610Z,48.67
2023-10-19T22:15:22.643Z,51.83
2023-10-19T22:17:51.952Z,49.90
2023-10-19T22:20:22.400Z,49.55
2023-10-19T22:22:51.483Z,52.50
2023-10-19T22:25:22.434Z,55.40
2023-10-19T22:27:53.429Z,52.58
2023-10-19T22:30:23.293Z,54.95
2023-10-19T22:32:52.529Z,54.13
2023-10-19T22:35:22.410Z,53.50
2023-10-19T22:37:51.871Z,54.45
2023-10-19T22:40:21.017Z,51.20
2023-10-19T22:42:49.801Z,49.53
2023-10-19T22:45:19.877Z,47.45
2023-10-19T22:47:48.794Z,44.92
2023-10-19T22:50:18.802Z,51.58
2023-10-19T22:52:48.805Z,51.97
2023-10-19T22:55:19.235Z,54.63
2023-10-19T22:57:52.526Z,56.70
2023-10-19T23:00:21.444Z,53.58
2023-10-19T23:02:50.976Z,54.10
2023-10-19T23:05:20.144Z,55.57
2023-10-19T23:07:52.564Z,50.73
2023-10-19T23:10:22.673Z,55.87
2023-10-19T23:12:52.350Z,61.17
2023-10-19T23:15:32.299Z,61.57
2023-10-19T23:18:01.532Z,52.80
2023-10-19T23:20:31.343Z,51.80
2023-10-19T23:23:05.299Z,54.90
2023-10-19T23:25:35.454Z,58.97
2023-10-19T23:28:06.401Z,64.27
2023-10-19T23:30:36.748Z,55.63
2023-10-19T23:33:08.643Z,55.78
2023-10-19T23:35:37.786Z,56.17
2023-10-19T23:38:08.719Z,55.23
2023-10-19T23:40:37.327Z,54.40
2023-10-19T23:43:07.512Z,53.00
2023-10-19T23:45:40.098Z,48.60
2023-10-19T23:48:12.121Z,51.07
2023-10-19T23:50:40.829Z,45.70
2023-10-19T23:53:11.684Z,47.20
2023-10-19T23:55:41.964Z,43.57
2023-10-19T23:58:10.664Z,42.63
